sensor_id;sensor_type;location;lat;lon;timestamp;P1;durP1;ratioP1;P2;durP2;ratioP2
52450;SDS011;38366;53.176;6.540;2022-12-05T05:32:02;13.45;;;6.75;;
52450;SDS011;38366;53.176;6.540;2022-12-05T05:34:28;14.60;;;7.33;;
52450;SDS011;38366;53.176;6.540;2022-12-05T05:36:53;14.13;;;7.23;;
52450;SDS011;38366;53.176;6.540;2022-12-05T05:39:19;15.57;;;6.87;;
52450;SDS011;38366;53.176;6.540;2022-12-05T05:41:45;14.50;;;7.13;;
52450;SDS011;38366;53.176;6.540;2022-12-05T05:44:10;12.43;;;6.90;;
52450;SDS011;38366;53.176;6.540;2022-12-05T05:46:36;16.70;;;7.05;;
52450;SDS011;38366;53.176;6.540;2022-12-05T05:49:02;13.65;;;7.30;;
52450;SDS011;38366;53.176;6.540;2022-12-05T05:51:28;17.92;;;7.13;;
52450;SDS011;38366;53.176;6.540;2022-12-05T05:53:54;12.95;;;6.85;;
52450;SDS011;38366;53.176;6.540;2022-12-05T05:56:21;13.25;;;7.53;;
52450;SDS011;38366;53.176;6.540;2022-12-05T05:58:47;12.38;;;7.07;;
52450;SDS011;38366;53.176;6.540;2022-12-05T06:01:19;14.63;;;7.47;;
52450;SDS011;38366;53.176;6.540;2022-12-05T06:03:44;14.15;;;7.20;;
52450;SDS011;38366;53.176;6.540;2022-12-05T06:06:11;13.55;;;7.43;;
52450;SDS011;38366;53.176;6.540;2022-12-05T06:08:39;11.00;;;6.93;;
52450;SDS011;38366;53.176;6.540;2022-12-05T06:13:37;12.70;;;6.57;;
52450;SDS011;38366;53.176;6.540;2022-12-05T06:16:04;15.38;;;7.20;;
52450;SDS011;38366;53.176;6.540;2022-12-05T06:18:31;16.85;;;8.95;;
52450;SDS011;38366;53.176;6.540;2022-12-05T06:20:57;15.13;;;7.55;;
52450;SDS011;38366;53.176;6.540;2022-12-05T06:23:24;16.65;;;6.88;;
52450;SDS011;38366;53.176;6.540;2022-12-05T06:25:51;17.50;;;8.15;;
52450;SDS011;38366;53.176;6.540;2022-12-05T06:28:18;12.73;;;7.10;;
52450;SDS011;38366;53.176;6.540;2022-12-05T06:30:45;17.42;;;7.07;;
52450;SDS011;38366;53.176;6.540;2022-12-05T06:33:11;17.55;;;7.18;;
52450;SDS011;38366;53.176;6.540;2022-12-05T06:35:36;17.15;;;8.25;;
52450;SDS011;38366;53.176;6.540;2022-12-05T06:38:02;16.77;;;7.87;;
52450;SDS011;38366;53.176;6.540;2022-12-05T06:40:28;15.48;;;7.40;;
52450;SDS011;38366;53.176;6.540;2022-12-05T06:42:54;15.23;;;6.97;;
52450;SDS011;38366;53.176;6.540;2022-12-05T06:45:20;14.73;;;7.90;;
52450;SDS011;38366;53.176;6.540;2022-12-05T06:47:45;16.95;;;7.88;;
52450;SDS011;38366;53.176;6.540;2022-12-05T06:50:11;18.70;;;8.03;;
52450;SDS011;38366;53.176;6.540;2022-12-05T06:52:37;16.08;;;7.22;;
52450;SDS011;38366;53.176;6.540;2022-12-05T06:55:03;19.83;;;7.95;;
52450;SDS011;38366;53.176;6.540;2022-12-05T06:57:29;18.58;;;7.50;;
52450;SDS011;38366;53.176;6.540;2022-12-05T06:59:55;17.55;;;8.13;;
52450;SDS011;38366;53.176;6.540;2022-12-05T07:02:41;17.42;;;7.65;;
52450;SDS011;38366;53.176;6.540;2022-12-05T07:05:07;17.85;;;8.45;;
52450;SDS011;38366;53.176;6.540;2022-12-05T07:07:34;19.83;;;8.57;;
52450;SDS011;38366;53.176;6.540;2022-12-05T07:10:00;19.88;;;7.88;;
52450;SDS011;38366;53.176;6.540;2022-12-05T07:12:26;18.42;;;8.10;;
52450;SDS011;38366;53.176;6.540;2022-12-05T07:14:52;15.70;;;7.35;;
52450;SDS011;38366;53.176;6.540;2022-12-05T07:17:18;17.97;;;7.90;;
52450;SDS011;38366;53.176;6.540;2022-12-05T07:19:48;20.10;;;8.45;;
52450;SDS011;38366;53.176;6.540;2022-12-05T07:22:15;19.88;;;7.85;;
52450;SDS011;38366;53.176;6.540;2022-12-05T07:24:41;18.75;;;7.50;;
52450;SDS011;38366;53.176;6.540;2022-12-05T07:27:07;18.10;;;9.00;;
52450;SDS011;38366;53.176;6.540;2022-12-05T07:29:33;17.80;;;7.63;;
52450;SDS011;38366;53.176;6.540;2022-12-05T07:31:59;15.90;;;7.40;;
52450;SDS011;38366;53.176;6.540;2022-12-05T07:34:24;19.20;;;8.30;;
52450;SDS011;38366;53.176;6.540;2022-12-05T07:36:50;19.47;;;7.77;;
52450;SDS011;38366;53.176;6.540;2022-12-05T07:39:16;16.30;;;6.87;;
52450;SDS011;38366;53.176;6.540;2022-12-05T07:41:41;25.23;;;8.13;;
52450;SDS011;38366;53.176;6.540;2022-12-05T07:44:10;17.60;;;8.10;;
52450;SDS011;38366;53.176;6.540;2022-12-05T07:46:37;21.90;;;8.63;;
52450;SDS011;38366;53.176;6.540;2022-12-05T07:49:03;18.73;;;7.47;;
52450;SDS011;38366;53.176;6.540;2022-12-05T07:51:29;18.80;;;9.25;;
52450;SDS011;38366;53.176;6.540;2022-12-05T07:53:55;20.45;;;8.35;;
52450;SDS011;38366;53.176;6.540;2022-12-05T07:56:23;17.77;;;6.70;;
52450;SDS011;38366;53.176;6.540;2022-12-05T07:58:49;15.95;;;7.70;;
52450;SDS011;38366;53.176;6.540;2022-12-05T08:01:22;17.65;;;7.50;;
52450;SDS011;38366;53.176;6.540;2022-12-05T08:03:50;16.85;;;7.55;;
52450;SDS011;38366;53.176;6.540;2022-12-05T08:06:21;18.35;;;8.27;;
52450;SDS011;38366;53.176;6.540;2022-12-05T08:08:52;15.73;;;7.10;;
52450;SDS011;38366;53.176;6.540;2022-12-05T08:13:54;17.42;;;8.07;;
52450;SDS011;38366;53.176;6.540;2022-12-05T08:16:22;18.77;;;7.00;;
52450;SDS011;38366;53.176;6.540;2022-12-05T08:18:57;14.55;;;7.30;;
52450;SDS011;38366;53.176;6.540;2022-12-05T08:21:28;17.45;;;8.23;;
52450;SDS011;38366;53.176;6.540;2022-12-05T08:26:24;16.30;;;7.32;;
52450;SDS011;38366;53.176;6.540;2022-12-05T08:28:55;17.92;;;7.32;;
52450;SDS011;38366;53.176;6.540;2022-12-05T08:31:23;18.02;;;7.93;;
52450;SDS011;38366;53.176;6.540;2022-12-05T08:33:51;18.13;;;8.02;;
52450;SDS011;38366;53.176;6.540;2022-12-05T08:36:17;13.02;;;6.65;;
52450;SDS011;38366;53.176;6.540;2022-12-05T08:38:43;15.65;;;8.18;;
52450;SDS011;38366;53.176;6.540;2022-12-05T08:41:11;18.90;;;7.63;;
52450;SDS011;38366;53.176;6.540;2022-12-05T08:43:41;15.45;;;6.97;;
52450;SDS011;38366;53.176;6.540;2022-12-05T08:46:08;17.40;;;6.60;;
52450;SDS011;38366;53.176;6.540;2022-12-05T08:48:36;15.35;;;7.75;;
52450;SDS011;38366;53.176;6.540;2022-12-05T08:53:32;16.88;;;7.20;;
52450;SDS011;38366;53.176;6.540;2022-12-05T08:56:02;24.40;;;8.57;;
52450;SDS011;38366;53.176;6.540;2022-12-05T08:58:29;16.95;;;7.28;;
52450;SDS011;38366;53.176;6.540;2022-12-05T09:01:02;15.82;;;8.10;;
52450;SDS011;38366;53.176;6.540;2022-12-05T09:03:28;17.85;;;7.55;;
52450;SDS011;38366;53.176;6.540;2022-12-05T09:05:54;19.10;;;8.50;;
52450;SDS011;38366;53.176;6.540;2022-12-05T09:08:28;17.85;;;7.70;;
52450;SDS011;38366;53.176;6.540;2022-12-05T09:10:54;16.50;;;7.57;;
52450;SDS011;38366;53.176;6.540;2022-12-05T09:13:20;15.73;;;7.23;;
52450;SDS011;38366;53.176;6.540;2022-12-05T09:15:45;21.17;;;8.37;;
52450;SDS011;38366;53.176;6.540;2022-12-05T09:18:11;15.83;;;8.10;;
52450;SDS011;38366;53.176;6.540;2022-12-05T09:20:40;15.63;;;7.72;;
52450;SDS011;38366;53.176;6.540;2022-12-05T09:23:06;16.13;;;7.60;;
52450;SDS011;38366;53.176;6.540;2022-12-05T09:25:31;19.40;;;8.07;;
52450;SDS011;38366;53.176;6.540;2022-12-05T09:27:57;17.17;;;7.80;;
52450;SDS011;38366;53.176;6.540;2022-12-05T09:30:23;17.07;;;7.70;;
52450;SDS011;38366;53.176;6.540;2022-12-05T09:32:48;15.10;;;7.37;;
52450;SDS011;38366;53.176;6.540;2022-12-05T09:35:14;17.23;;;7.80;;
52450;SDS011;38366;53.176;6.540;2022-12-05T09:37:40;18.65;;;7.78;;
52450;SDS011;38366;53.176;6.540;2022-12-05T09:40:06;16.43;;;7.50;;
52450;SDS011;38366;53.176;6.540;2022-12-05T09:45:31;15.85;;;7.68;;
52450;SDS011;38366;53.176;6.540;2022-12-05T09:48:06;16.40;;;7.85;;
52450;SDS011;38366;53.176;6.540;2022-12-05T09:50:41;21.45;;;8.23;;
52450;SDS011;38366;53.176;6.540;2022-12-05T09:55:45;18.38;;;8.35;;
52450;SDS011;38366;53.176;6.540;2022-12-05T10:15:22;20.30;;;8.55;;
52450;SDS011;38366;53.176;6.540;2022-12-05T10:18:41;16.50;;;8.23;;
52450;SDS011;38366;53.176;6.540;2022-12-05T10:21:20;16.95;;;8.50;;
52450;SDS011;38366;53.176;6.540;2022-12-05T10:24:11;22.63;;;8.35;;
52450;SDS011;38366;53.176;6.540;2022-12-05T10:26:50;16.75;;;8.40;;
52450;SDS011;38366;53.176;6.540;2022-12-05T10:35:19;16.40;;;7.97;;
52450;SDS011;38366;53.176;6.540;2022-12-05T10:38:03;16.85;;;8.18;;
52450;SDS011;38366;53.176;6.540;2022-12-05T10:40:39;14.75;;;8.18;;
52450;SDS011;38366;53.176;6.540;2022-12-05T10:43:10;16.45;;;8.18;;
52450;SDS011;38366;53.176;6.540;2022-12-05T10:45:40;20.35;;;9.75;;
52450;SDS011;38366;53.176;6.540;2022-12-05T10:48:08;15.63;;;8.05;;
52450;SDS011;38366;53.176;6.540;2022-12-05T10:50:38;18.42;;;7.72;;
52450;SDS011;38366;53.176;6.540;2022-12-05T10:53:06;17.50;;;8.13;;
52450;SDS011;38366;53.176;6.540;2022-12-05T10:55:36;14.70;;;7.22;;
52450;SDS011;38366;53.176;6.540;2022-12-05T10:58:22;18.58;;;7.63;;
52450;SDS011;38366;53.176;6.540;2022-12-05T11:00:51;14.13;;;6.82;;
52450;SDS011;38366;53.176;6.540;2022-12-05T11:03:26;14.63;;;6.95;;
52450;SDS011;38366;53.176;6.540;2022-12-05T11:06:01;16.50;;;7.80;;
52450;SDS011;38366;53.176;6.540;2022-12-05T11:08:39;14.93;;;7.28;;
52450;SDS011;38366;53.176;6.540;2022-12-05T11:13:54;12.27;;;6.93;;
52450;SDS011;38366;53.176;6.540;2022-12-05T11:16:33;14.00;;;6.40;;
52450;SDS011;38366;53.176;6.540;2022-12-05T11:21:45;13.68;;;7.05;;
52450;SDS011;38366;53.176;6.540;2022-12-05T11:29:40;11.38;;;5.90;;
52450;SDS011;38366;53.176;6.540;2022-12-05T11:32:17;13.88;;;6.80;;
52450;SDS011;38366;53.176;6.540;2022-12-05T11:34:52;12.80;;;6.20;;
52450;SDS011;38366;53.176;6.540;2022-12-05T11:37:30;13.23;;;6.35;;
52450;SDS011;38366;53.176;6.540;2022-12-05T11:40:36;11.80;;;5.65;;
52450;SDS011;38366;53.176;6.540;2022-12-05T11:43:23;10.80;;;5.60;;
52450;SDS011;38366;53.176;6.540;2022-12-05T11:51:39;10.45;;;5.88;;
52450;SDS011;38366;53.176;6.540;2022-12-05T11:54:21;12.63;;;5.72;;
52450;SDS011;38366;53.176;6.540;2022-12-05T11:57:11;15.88;;;5.75;;
52450;SDS011;38366;53.176;6.540;2022-12-05T11:59:57;14.00;;;6.28;;
52450;SDS011;38366;53.176;6.540;2022-12-05T12:05:43;11.77;;;6.00;;
52450;SDS011;38366;53.176;6.540;2022-12-05T12:25:26;11.10;;;5.57;;
52450;SDS011;38366;53.176;6.540;2022-12-05T12:36:53;10.38;;;4.72;;
52450;SDS011;38366;53.176;6.540;2022-12-05T12:39:36;10.40;;;4.82;;
52450;SDS011;38366;53.176;6.540;2022-12-05T12:42:23;7.65;;;4.60;;
52450;SDS011;38366;53.176;6.540;2022-12-05T12:50:32;10.15;;;4.68;;
52450;SDS011;38366;53.176;6.540;2022-12-05T13:01:10;7.55;;;3.95;;
52450;SDS011;38366;53.176;6.540;2022-12-05T13:03:49;8.15;;;4.00;;
52450;SDS011;38366;53.176;6.540;2022-12-05T13:06:47;11.52;;;5.22;;
52450;SDS011;38366;53.176;6.540;2022-12-05T13:09:25;13.32;;;5.43;;
52450;SDS011;38366;53.176;6.540;2022-12-05T13:11:56;10.73;;;4.70;;
52450;SDS011;38366;53.176;6.540;2022-12-05T13:14:27;9.05;;;4.38;;
52450;SDS011;38366;53.176;6.540;2022-12-05T13:16:54;9.63;;;4.43;;
52450;SDS011;38366;53.176;6.540;2022-12-05T13:19:41;9.50;;;4.35;;
52450;SDS011;38366;53.176;6.540;2022-12-05T13:22:20;11.02;;;3.88;;
52450;SDS011;38366;53.176;6.540;2022-12-05T13:24:49;8.63;;;3.88;;
52450;SDS011;38366;53.176;6.540;2022-12-05T13:27:25;10.25;;;4.13;;
52450;SDS011;38366;53.176;6.540;2022-12-05T13:29:53;8.48;;;4.13;;
52450;SDS011;38366;53.176;6.540;2022-12-05T13:32:29;9.48;;;4.68;;
52450;SDS011;38366;53.176;6.540;2022-12-05T13:38:38;9.60;;;4.03;;
52450;SDS011;38366;53.176;6.540;2022-12-05T13:41:36;9.82;;;3.80;;
52450;SDS011;38366;53.176;6.540;2022-12-05T13:44:36;9.07;;;3.92;;
52450;SDS011;38366;53.176;6.540;2022-12-05T13:47:05;6.07;;;3.60;;
52450;SDS011;38366;53.176;6.540;2022-12-05T13:49:40;7.65;;;3.63;;
52450;SDS011;38366;53.176;6.540;2022-12-05T13:52:14;8.77;;;3.95;;
52450;SDS011;38366;53.176;6.540;2022-12-05T13:54:55;8.98;;;3.97;;
52450;SDS011;38366;53.176;6.540;2022-12-05T13:57:43;7.32;;;3.70;;
52450;SDS011;38366;53.176;6.540;2022-12-05T14:10:19;8.60;;;4.57;;
52450;SDS011;38366;53.176;6.540;2022-12-05T14:12:48;9.55;;;4.25;;
52450;SDS011;38366;53.176;6.540;2022-12-05T14:23:27;7.22;;;4.03;;
52450;SDS011;38366;53.176;6.540;2022-12-05T14:31:37;10.68;;;4.25;;
52450;SDS011;38366;53.176;6.540;2022-12-05T14:39:36;10.05;;;4.00;;
52450;SDS011;38366;53.176;6.540;2022-12-05T14:42:21;8.93;;;4.32;;
52450;SDS011;38366;53.176;6.540;2022-12-05T14:44:51;10.52;;;4.28;;
52450;SDS011;38366;53.176;6.540;2022-12-05T14:47:21;10.23;;;4.05;;
52450;SDS011;38366;53.176;6.540;2022-12-05T14:49:52;10.35;;;3.92;;
52450;SDS011;38366;53.176;6.540;2022-12-05T14:52:21;11.18;;;4.15;;
52450;SDS011;38366;53.176;6.540;2022-12-05T14:54:50;10.68;;;4.10;;
52450;SDS011;38366;53.176;6.540;2022-12-05T14:57:19;6.57;;;3.78;;
52450;SDS011;38366;53.176;6.540;2022-12-05T14:59:50;8.20;;;3.28;;
52450;SDS011;38366;53.176;6.540;2022-12-05T15:05:00;6.90;;;3.72;;
52450;SDS011;38366;53.176;6.540;2022-12-05T15:07:38;10.45;;;3.92;;
52450;SDS011;38366;53.176;6.540;2022-12-05T15:18:22;10.48;;;3.67;;
52450;SDS011;38366;53.176;6.540;2022-12-05T15:31:49;13.25;;;5.03;;
52450;SDS011;38366;53.176;6.540;2022-12-05T15:37:21;8.07;;;3.88;;
52450;SDS011;38366;53.176;6.540;2022-12-05T15:47:45;8.70;;;3.83;;
52450;SDS011;38366;53.176;6.540;2022-12-05T15:50:13;8.98;;;3.95;;
52450;SDS011;38366;53.176;6.540;2022-12-05T15:53:01;8.50;;;3.80;;
52450;SDS011;38366;53.176;6.540;2022-12-05T15:58:33;6.00;;;3.70;;
52450;SDS011;38366;53.176;6.540;2022-12-05T16:01:40;9.07;;;4.90;;
52450;SDS011;38366;53.176;6.540;2022-12-05T16:06:47;7.88;;;4.82;;
52450;SDS011;38366;53.176;6.540;2022-12-05T16:09:19;10.73;;;5.72;;
52450;SDS011;38366;53.176;6.540;2022-12-05T16:11:54;9.70;;;5.28;;
52450;SDS011;38366;53.176;6.540;2022-12-05T16:14:29;9.63;;;4.65;;
52450;SDS011;38366;53.176;6.540;2022-12-05T16:16:59;6.82;;;4.03;;
52450;SDS011;38366;53.176;6.540;2022-12-05T16:19:26;10.30;;;5.13;;
52450;SDS011;38366;53.176;6.540;2022-12-05T16:24:38;13.73;;;5.78;;
52450;SDS011;38366;53.176;6.540;2022-12-05T16:27:32;9.93;;;4.93;;
52450;SDS011;38366;53.176;6.540;2022-12-05T16:30:07;9.25;;;5.00;;
52450;SDS011;38366;53.176;6.540;2022-12-05T16:32:38;13.07;;;5.03;;
52450;SDS011;38366;53.176;6.540;2022-12-05T16:43:27;14.70;;;7.43;;
52450;SDS011;38366;53.176;6.540;2022-12-05T16:48:41;15.25;;;7.90;;
52450;SDS011;38366;53.176;6.540;2022-12-05T16:53:43;12.82;;;5.80;;
52450;SDS011;38366;53.176;6.540;2022-12-05T16:56:14;13.30;;;5.82;;
52450;SDS011;38366;53.176;6.540;2022-12-05T16:58:54;15.02;;;5.05;;
52450;SDS011;38366;53.176;6.540;2022-12-05T17:01:24;12.23;;;5.57;;
52450;SDS011;38366;53.176;6.540;2022-12-05T17:03:51;11.45;;;5.07;;
52450;SDS011;38366;53.176;6.540;2022-12-05T17:06:18;11.23;;;4.93;;
52450;SDS011;38366;53.176;6.540;2022-12-05T17:08:48;11.10;;;5.47;;
52450;SDS011;38366;53.176;6.540;2022-12-05T17:11:21;10.23;;;5.97;;
52450;SDS011;38366;53.176;6.540;2022-12-05T17:13:50;11.93;;;5.60;;
52450;SDS011;38366;53.176;6.540;2022-12-05T17:16:17;12.40;;;5.97;;
52450;SDS011;38366;53.176;6.540;2022-12-05T17:18:44;12.27;;;5.25;;
52450;SDS011;38366;53.176;6.540;2022-12-05T17:21:14;11.98;;;5.88;;
52450;SDS011;38366;53.176;6.540;2022-12-05T17:23:42;10.48;;;6.15;;
52450;SDS011;38366;53.176;6.540;2022-12-05T17:26:11;12.18;;;5.53;;
52450;SDS011;38366;53.176;6.540;2022-12-05T17:28:38;12.05;;;5.28;;
52450;SDS011;38366;53.176;6.540;2022-12-05T17:31:04;10.57;;;4.38;;
52450;SDS011;38366;53.176;6.540;2022-12-05T17:35:56;10.38;;;4.53;;
52450;SDS011;38366;53.176;6.540;2022-12-05T17:38:22;7.90;;;4.00;;
52450;SDS011;38366;53.176;6.540;2022-12-05T17:40:47;8.38;;;5.07;;
52450;SDS011;38366;53.176;6.540;2022-12-05T17:43:13;10.15;;;4.90;;
52450;SDS011;38366;53.176;6.540;2022-12-05T17:45:42;8.15;;;4.57;;
52450;SDS011;38366;53.176;6.540;2022-12-05T17:48:10;8.75;;;4.78;;
52450;SDS011;38366;53.176;6.540;2022-12-05T17:50:38;8.30;;;4.35;;
52450;SDS011;38366;53.176;6.540;2022-12-05T17:53:05;6.88;;;4.20;;
52450;SDS011;38366;53.176;6.540;2022-12-05T17:55:36;10.07;;;4.40;;
52450;SDS011;38366;53.176;6.540;2022-12-05T17:58:02;9.48;;;4.20;;
52450;SDS011;38366;53.176;6.540;2022-12-05T18:00:28;9.07;;;4.43;;
52450;SDS011;38366;53.176;6.540;2022-12-05T18:02:53;11.32;;;5.45;;
52450;SDS011;38366;53.176;6.540;2022-12-05T18:05:19;11.83;;;5.03;;
52450;SDS011;38366;53.176;6.540;2022-12-05T18:07:45;11.00;;;5.20;;
52450;SDS011;38366;53.176;6.540;2022-12-05T18:10:12;10.57;;;5.28;;
52450;SDS011;38366;53.176;6.540;2022-12-05T18:12:40;8.88;;;5.03;;
52450;SDS011;38366;53.176;6.540;2022-12-05T18:15:06;16.60;;;6.57;;
52450;SDS011;38366;53.176;6.540;2022-12-05T18:19:58;9.52;;;5.53;;
52450;SDS011;38366;53.176;6.540;2022-12-05T18:22:24;9.52;;;4.70;;
52450;SDS011;38366;53.176;6.540;2022-12-05T18:27:17;12.98;;;5.25;;
52450;SDS011;38366;53.176;6.540;2022-12-05T18:29:43;10.80;;;5.18;;
52450;SDS011;38366;53.176;6.540;2022-12-05T18:32:11;14.05;;;4.93;;
52450;SDS011;38366;53.176;6.540;2022-12-05T18:34:37;7.53;;;4.22;;
52450;SDS011;38366;53.176;6.540;2022-12-05T18:37:02;10.07;;;5.05;;
52450;SDS011;38366;53.176;6.540;2022-12-05T18:39:28;9.77;;;5.20;;
52450;SDS011;38366;53.176;6.540;2022-12-05T18:41:54;8.90;;;5.00;;
52450;SDS011;38366;53.176;6.540;2022-12-05T18:44:20;9.07;;;3.97;;
52450;SDS011;38366;53.176;6.540;2022-12-05T18:46:45;9.23;;;4.93;;
52450;SDS011;38366;53.176;6.540;2022-12-05T18:49:11;7.27;;;4.00;;
52450;SDS011;38366;53.176;6.540;2022-12-05T18:51:37;9.75;;;4.70;;
52450;SDS011;38366;53.176;6.540;2022-12-05T18:54:06;9.43;;;5.32;;
52450;SDS011;38366;53.176;6.540;2022-12-05T18:56:33;10.60;;;5.72;;
52450;SDS011;38366;53.176;6.540;2022-12-05T18:59:00;8.13;;;4.30;;
52450;SDS011;38366;53.176;6.540;2022-12-05T19:01:28;13.95;;;5.43;;
52450;SDS011;38366;53.176;6.540;2022-12-05T19:03:58;9.27;;;4.00;;
52450;SDS011;38366;53.176;6.540;2022-12-05T19:06:26;11.25;;;4.85;;
52450;SDS011;38366;53.176;6.540;2022-12-05T19:08:57;12.32;;;5.10;;
52450;SDS011;38366;53.176;6.540;2022-12-05T19:11:25;9.60;;;4.22;;
52450;SDS011;38366;53.176;6.540;2022-12-05T19:13:55;12.60;;;5.32;;
52450;SDS011;38366;53.176;6.540;2022-12-05T19:16:22;12.23;;;5.43;;
52450;SDS011;38366;53.176;6.540;2022-12-05T19:18:50;11.00;;;5.22;;
52450;SDS011;38366;53.176;6.540;2022-12-05T19:21:19;12.07;;;4.28;;
52450;SDS011;38366;53.176;6.540;2022-12-05T19:23:44;11.15;;;4.80;;
52450;SDS011;38366;53.176;6.540;2022-12-05T19:26:10;11.02;;;4.40;;
52450;SDS011;38366;53.176;6.540;2022-12-05T19:28:36;9.75;;;3.70;;
52450;SDS011;38366;53.176;6.540;2022-12-05T19:31:09;11.32;;;4.65;;
52450;SDS011;38366;53.176;6.540;2022-12-05T19:33:41;17.55;;;5.07;;
52450;SDS011;38366;53.176;6.540;2022-12-05T19:36:10;8.80;;;4.00;;
52450;SDS011;38366;53.176;6.540;2022-12-05T19:38:38;15.38;;;4.57;;
52450;SDS011;38366;53.176;6.540;2022-12-05T19:41:06;14.75;;;4.15;;
52450;SDS011;38366;53.176;6.540;2022-12-05T19:43:33;11.75;;;3.63;;
52450;SDS011;38366;53.176;6.540;2022-12-05T19:46:08;10.50;;;5.38;;
52450;SDS011;38366;53.176;6.540;2022-12-05T19:48:36;10.85;;;3.70;;
52450;SDS011;38366;53.176;6.540;2022-12-05T19:51:02;9.82;;;4.75;;
52450;SDS011;38366;53.176;6.540;2022-12-05T19:53:28;11.57;;;4.55;;
52450;SDS011;38366;53.176;6.540;2022-12-05T19:55:59;11.82;;;6.13;;
52450;SDS011;38366;53.176;6.540;2022-12-05T19:58:36;9.05;;;4.22;;
52450;SDS011;38366;53.176;6.540;2022-12-05T20:01:10;7.75;;;5.25;;
52450;SDS011;38366;53.176;6.540;2022-12-05T20:03:38;16.42;;;6.63;;
52450;SDS011;38366;53.176;6.540;2022-12-05T20:06:04;11.13;;;5.07;;
52450;SDS011;38366;53.176;6.540;2022-12-05T20:08:31;12.57;;;5.68;;
52450;SDS011;38366;53.176;6.540;2022-12-05T20:13:34;12.52;;;5.10;;
52450;SDS011;38366;53.176;6.540;2022-12-05T20:16:01;16.98;;;4.97;;
52450;SDS011;38366;53.176;6.540;2022-12-05T20:18:28;13.45;;;5.28;;
52450;SDS011;38366;53.176;6.540;2022-12-05T20:20:55;13.82;;;5.30;;
52450;SDS011;38366;53.176;6.540;2022-12-05T20:23:21;8.40;;;3.80;;
52450;SDS011;38366;53.176;6.540;2022-12-05T20:25:47;13.17;;;4.00;;
52450;SDS011;38366;53.176;6.540;2022-12-05T20:28:13;13.30;;;4.83;;
52450;SDS011;38366;53.176;6.540;2022-12-05T20:33:05;14.57;;;5.78;;
52450;SDS011;38366;53.176;6.540;2022-12-05T20:35:34;8.65;;;4.03;;
52450;SDS011;38366;53.176;6.540;2022-12-05T20:38:00;13.52;;;4.47;;
52450;SDS011;38366;53.176;6.540;2022-12-05T20:40:26;13.93;;;4.20;;
52450;SDS011;38366;53.176;6.540;2022-12-05T20:42:52;13.05;;;4.13;;
52450;SDS011;38366;53.176;6.540;2022-12-05T20:45:18;16.10;;;4.50;;
52450;SDS011;38366;53.176;6.540;2022-12-05T20:47:43;10.47;;;3.83;;
52450;SDS011;38366;53.176;6.540;2022-12-05T20:50:09;12.03;;;4.43;;
52450;SDS011;38366;53.176;6.540;2022-12-05T20:52:35;11.20;;;4.15;;
52450;SDS011;38366;53.176;6.540;2022-12-05T20:55:01;18.57;;;4.43;;
52450;SDS011;38366;53.176;6.540;2022-12-05T20:57:27;10.23;;;3.50;;
52450;SDS011;38366;53.176;6.540;2022-12-05T20:59:52;14.87;;;4.37;;
52450;SDS011;38366;53.176;6.540;2022-12-05T21:02:18;13.37;;;4.60;;
52450;SDS011;38366;53.176;6.540;2022-12-05T21:04:44;12.37;;;4.77;;
52450;SDS011;38366;53.176;6.540;2022-12-05T21:07:09;12.70;;;4.07;;
52450;SDS011;38366;53.176;6.540;2022-12-05T21:09:35;10.90;;;4.30;;
52450;SDS011;38366;53.176;6.540;2022-12-05T21:12:01;8.20;;;3.30;;
52450;SDS011;38366;53.176;6.540;2022-12-05T21:14:26;10.20;;;3.72;;
52450;SDS011;38366;53.176;6.540;2022-12-05T21:16:52;10.07;;;3.80;;
52450;SDS011;38366;53.176;6.540;2022-12-05T21:19:21;8.60;;;3.05;;
52450;SDS011;38366;53.176;6.540;2022-12-05T21:21:47;8.00;;;2.85;;
52450;SDS011;38366;53.176;6.540;2022-12-05T21:24:13;9.55;;;3.72;;
52450;SDS011;38366;53.176;6.540;2022-12-05T21:26:38;10.23;;;3.37;;
52450;SDS011;38366;53.176;6.540;2022-12-05T21:29:05;5.15;;;3.10;;
52450;SDS011;38366;53.176;6.540;2022-12-05T21:31:36;9.45;;;2.92;;
52450;SDS011;38366;53.176;6.540;2022-12-05T21:34:11;7.82;;;3.65;;
52450;SDS011;38366;53.176;6.540;2022-12-05T21:36:43;10.30;;;3.20;;
52450;SDS011;38366;53.176;6.540;2022-12-05T21:39:09;8.63;;;3.30;;
52450;SDS011;38366;53.176;6.540;2022-12-05T21:41:36;8.35;;;3.25;;
52450;SDS011;38366;53.176;6.540;2022-12-05T21:44:02;11.00;;;3.65;;
52450;SDS011;38366;53.176;6.540;2022-12-05T21:46:28;14.15;;;3.08;;
52450;SDS011;38366;53.176;6.540;2022-12-05T21:48:54;12.05;;;3.58;;
52450;SDS011;38366;53.176;6.540;2022-12-05T21:51:20;13.37;;;3.27;;
52450;SDS011;38366;53.176;6.540;2022-12-05T21:53:46;11.88;;;3.20;;
52450;SDS011;38366;53.176;6.540;2022-12-05T21:56:13;5.60;;;3.03;;
52450;SDS011;38366;53.176;6.540;2022-12-05T21:58:40;9.45;;;3.33;;
52450;SDS011;38366;53.176;6.540;2022-12-05T22:01:07;11.13;;;3.00;;
52450;SDS011;38366;53.176;6.540;2022-12-05T22:03:33;6.32;;;3.13;;
52450;SDS011;38366;53.176;6.540;2022-12-05T22:06:00;9.65;;;3.33;;
52450;SDS011;38366;53.176;6.540;2022-12-05T22:08:30;12.68;;;4.22;;
52450;SDS011;38366;53.176;6.540;2022-12-05T22:11:09;12.63;;;3.85;;
52450;SDS011;38366;53.176;6.540;2022-12-05T22:13:37;10.45;;;2.85;;
52450;SDS011;38366;53.176;6.540;2022-12-05T22:16:03;6.82;;;2.70;;
52450;SDS011;38366;53.176;6.540;2022-12-05T22:18:30;9.90;;;2.95;;
52450;SDS011;38366;53.176;6.540;2022-12-05T22:20:56;9.90;;;2.47;;
52450;SDS011;38366;53.176;6.540;2022-12-05T22:23:22;7.90;;;2.83;;
52450;SDS011;38366;53.176;6.540;2022-12-05T22:25:58;7.53;;;2.55;;
52450;SDS011;38366;53.176;6.540;2022-12-05T22:28:26;11.07;;;2.17;;
52450;SDS011;38366;53.176;6.540;2022-12-05T22:30:56;6.97;;;2.53;;
52450;SDS011;38366;53.176;6.540;2022-12-05T22:33:23;8.88;;;2.60;;
52450;SDS011;38366;53.176;6.540;2022-12-05T22:35:53;10.90;;;2.35;;
52450;SDS011;38366;53.176;6.540;2022-12-05T22:38:27;4.20;;;2.10;;
52450;SDS011;38366;53.176;6.540;2022-12-05T22:40:57;7.55;;;2.50;;
52450;SDS011;38366;53.176;6.540;2022-12-05T22:43:25;5.57;;;2.00;;
52450;SDS011;38366;53.176;6.540;2022-12-05T22:45:52;7.55;;;2.13;;
52450;SDS011;38366;53.176;6.540;2022-12-05T22:48:18;9.70;;;2.20;;
52450;SDS011;38366;53.176;6.540;2022-12-05T22:50:48;15.25;;;1.92;;
52450;SDS011;38366;53.176;6.540;2022-12-05T22:53:22;9.23;;;2.50;;
52450;SDS011;38366;53.176;6.540;2022-12-05T22:55:48;10.90;;;2.28;;
52450;SDS011;38366;53.176;6.540;2022-12-05T22:58:15;7.22;;;2.42;;
52450;SDS011;38366;53.176;6.540;2022-12-05T23:00:42;8.18;;;3.10;;
52450;SDS011;38366;53.176;6.540;2022-12-05T23:03:08;5.70;;;2.33;;
52450;SDS011;38366;53.176;6.540;2022-12-05T23:05:41;5.00;;;1.90;;
52450;SDS011;38366;53.176;6.540;2022-12-05T23:08:08;8.25;;;2.08;;
52450;SDS011;38366;53.176;6.540;2022-12-05T23:10:35;5.85;;;2.10;;
52450;SDS011;38366;53.176;6.540;2022-12-05T23:13:06;7.25;;;1.95;;
52450;SDS011;38366;53.176;6.540;2022-12-05T23:15:32;6.18;;;2.22;;
52450;SDS011;38366;53.176;6.540;2022-12-05T23:18:01;5.80;;;2.30;;
52450;SDS011;38366;53.176;6.540;2022-12-05T23:20:27;6.32;;;2.28;;
52450;SDS011;38366;53.176;6.540;2022-12-05T23:22:53;5.57;;;2.20;;
52450;SDS011;38366;53.176;6.540;2022-12-05T23:25:19;6.50;;;1.90;;
52450;SDS011;38366;53.176;6.540;2022-12-05T23:27:45;4.68;;;1.92;;
52450;SDS011;38366;53.176;6.540;2022-12-05T23:30:11;10.73;;;2.33;;
52450;SDS011;38366;53.176;6.540;2022-12-05T23:35:03;8.52;;;2.33;;
52450;SDS011;38366;53.176;6.540;2022-12-05T23:37:29;6.75;;;2.00;;
52450;SDS011;38366;53.176;6.540;2022-12-05T23:39:55;10.18;;;2.17;;
52450;SDS011;38366;53.176;6.540;2022-12-05T23:42:21;8.65;;;2.72;;
52450;SDS011;38366;53.176;6.540;2022-12-05T23:44:46;4.75;;;2.03;;